Time;durP1;ratioP1;P1;durP2;ratioP2;P2;SDS_P1;SDS_P2;PMS_P1;PMS_P2;Temp;Humidity;BMP_temperature;BMP_pressure;BME280_temperature;BME280_humidity;BME280_pressure;Samples;Min_cycle;Max_cycle;Signal;HPM_P1;HPM_P2
2021/12/04 00:00:38;;;;;;;3.08;2.13;;;;;;;7.17;69.83;99978.22;5122694;28;20059;-62
2021/12/04 00:03:07;;;;;;;2.67;1.48;;;;;;;7.15;69.81;99977.63;5120457;28;20054;-62
2021/12/04 00:05:35;;;;;;;3.10;1.40;;;;;;;7.17;69.74;99964.84;5115362;28;20048;-62
2021/12/04 00:08:03;;;;;;;2.50;1.40;;;;;;;7.16;70.40;99964.03;5121530;28;20130;-62
2021/12/04 00:10:31;;;;;;;2.38;1.55;;;;;;;7.15;69.74;99962.41;5122943;28;20473;-62
2021/12/04 00:12:59;;;;;;;3.35;1.60;;;;;;;7.14;69.83;99955.41;5110281;28;20051;-62
2021/12/04 00:15:26;;;;;;;2.30;1.70;;;;;;;7.14;69.97;99950.09;5121037;28;20043;-62
2021/12/04 00:17:56;;;;;;;2.40;1.60;;;;;;;7.17;69.93;99938.13;5119900;28;20047;-62
2021/12/04 00:20:30;;;;;;;1.85;1.40;;;;;;;7.16;69.79;99931.16;5123721;28;20188;-62
2021/12/04 00:22:59;;;;;;;2.05;1.40;;;;;;;7.16;69.60;99928.47;5116693;28;20507;-62
2021/12/04 00:25:28;;;;;;;2.05;1.35;;;;;;;7.14;70.05;99920.69;5117351;28;20063;-62
2021/12/04 00:27:56;;;;;;;4.78;1.85;;;;;;;7.15;70.04;99924.19;5122833;28;20484;-62
2021/12/04 00:30:26;;;;;;;1.83;1.35;;;;;;;7.14;70.18;99918.03;5119889;28;20065;-62
2021/12/04 00:32:59;;;;;;;1.65;1.30;;;;;;;7.13;69.60;99913.72;5122104;28;20052;-62
2021/12/04 00:35:40;;;;;;;3.17;1.77;;;;;;;7.13;69.78;99919.06;5107340;28;20607;-62
2021/12/04 00:49:09;;;;;;;2.15;1.63;;;;;;;7.12;70.03;99911.25;5111742;28;20134;-62
2021/12/04 00:51:40;;;;;;;1.38;1.20;;;;;;;7.11;70.46;99906.97;5115995;28;20040;-62
2021/12/04 00:54:12;;;;;;;1.85;1.40;;;;;;;7.12;70.55;99896.03;5114248;28;20059;-61
2021/12/04 00:56:41;;;;;;;2.92;1.30;;;;;;;7.13;70.02;99905.69;5113684;28;20083;-62
2021/12/04 00:59:10;;;;;;;1.38;1.25;;;;;;;7.14;70.37;99903.84;5114175;28;20058;-62
2021/12/04 01:01:40;;;;;;;2.40;1.10;;;;;;;7.12;70.23;99903.25;5109295;28;20144;-60
2021/12/04 01:04:10;;;;;;;1.90;1.33;;;;;;;7.12;70.00;99898.72;5112164;28;20108;-62
2021/12/04 01:06:40;;;;;;;1.23;1.13;;;;;;;7.11;69.99;99902.44;5109919;28;20395;-62
2021/12/04 01:09:09;;;;;;;2.08;1.52;;;;;;;7.10;70.09;99899.97;5119059;28;20396;-61
2021/12/04 01:11:38;;;;;;;1.05;0.98;;;;;;;7.10;70.34;99908.81;5109641;28;20541;-61
2021/12/04 01:14:07;;;;;;;1.30;1.15;;;;;;;7.09;70.61;99907.19;5118068;28;20047;-62
2021/12/04 01:16:35;;;;;;;2.97;1.88;;;;;;;7.09;70.50;99909.03;5122792;28;20051;-62
2021/12/04 01:19:03;;;;;;;1.88;1.40;;;;;;;7.09;70.31;99907.19;5123583;28;20039;-62
2021/12/04 01:21:31;;;;;;;1.27;1.15;;;;;;;7.10;70.76;99906.13;5114643;28;20070;-62
2021/12/04 01:24:00;;;;;;;2.13;1.40;;;;;;;7.09;70.08;99909.84;5114114;28;20094;-61
2021/12/04 01:26:28;;;;;;;1.50;1.20;;;;;;;7.11;70.16;99906.97;5114549;28;20048;-61
2021/12/04 01:28:56;;;;;;;1.88;1.45;;;;;;;7.13;70.38;99912.91;5122561;28;20051;-62
2021/12/04 01:31:24;;;;;;;1.75;1.30;;;;;;;7.12;69.99;99909.41;5122971;28;20123;-61
2021/12/04 01:33:52;;;;;;;2.03;1.25;;;;;;;7.13;70.28;99905.69;5122827;28;20078;-61
2021/12/04 01:36:20;;;;;;;1.42;1.10;;;;;;;7.12;70.37;99898.72;5110896;28;20442;-62
2021/12/04 01:38:48;;;;;;;1.20;1.08;;;;;;;7.13;70.15;99897.69;5125354;28;20067;-62
2021/12/04 01:41:17;;;;;;;1.58;0.90;;;;;;;7.11;70.14;99901.63;5124878;28;20051;-62
2021/12/04 01:43:45;;;;;;;1.05;0.95;;;;;;;7.14;70.31;99893.97;5116721;28;20493;-62
2021/12/04 01:46:13;;;;;;;1.58;1.38;;;;;;;7.13;70.37;99887.00;5111337;28;20066;-61
2021/12/04 01:48:41;;;;;;;1.83;1.13;;;;;;;7.12;70.14;99887.22;5126662;28;20079;-61
2021/12/04 01:51:09;;;;;;;2.95;1.20;;;;;;;7.15;70.57;99894.78;5119869;28;20047;-62
2021/12/04 01:53:37;;;;;;;1.20;1.10;;;;;;;7.12;70.39;99885.34;5126615;28;20054;-62
2021/12/04 01:56:05;;;;;;;1.38;1.05;;;;;;;7.12;70.65;99892.56;5125046;28;20055;-62
2021/12/04 01:58:34;;;;;;;1.55;1.10;;;;;;;7.10;70.18;99892.78;5121406;28;20047;-61
2021/12/04 02:01:02;;;;;;;1.35;1.25;;;;;;;7.10;70.29;99882.09;5121110;28;20080;-62
2021/12/04 02:03:30;;;;;;;1.45;1.23;;;;;;;7.10;70.36;99882.09;5109266;28;20071;-62
2021/12/04 02:05:58;;;;;;;2.50;1.58;;;;;;;7.08;70.47;99878.00;5120232;28;20115;-61
2021/12/04 02:08:26;;;;;;;1.48;1.10;;;;;;;7.08;70.55;99883.34;5122308;28;20086;-62
2021/12/04 02:10:58;;;;;;;1.25;1.10;;;;;;;7.05;70.61;99868.59;5125022;28;20314;-61
2021/12/04 02:13:26;;;;;;;0.90;0.88;;;;;;;7.09;70.77;99869.78;5125542;28;20051;-61
2021/12/04 02:15:58;;;;;;;1.35;1.20;;;;;;;7.11;70.66;99866.88;5124829;28;20100;-62
2021/12/04 02:18:26;;;;;;;1.60;1.30;;;;;;;7.11;70.43;99850.84;5126194;28;20044;-61
2021/12/04 02:20:56;;;;;;;1.13;1.02;;;;;;;7.10;70.83;99844.69;5125851;28;20204;-61
2021/12/04 02:23:24;;;;;;;1.50;1.20;;;;;;;7.10;70.53;99842.03;5126118;28;20048;-62
2021/12/04 02:25:52;;;;;;;1.40;1.20;;;;;;;7.08;70.41;99836.09;5120401;28;20071;-61
2021/12/04 02:28:19;;;;;;;1.05;0.95;;;;;;;7.09;70.80;99823.53;5121889;28;20045;-61
2021/12/04 02:30:48;;;;;;;2.20;1.33;;;;;;;7.12;70.70;99820.41;5113041;28;20059;-62
2021/12/04 02:33:17;;;;;;;1.20;1.10;;;;;;;7.12;70.33;99809.72;5125521;28;20420;-62
2021/12/04 02:35:47;;;;;;;1.90;1.10;;;;;;;7.12;70.73;99809.72;5124004;28;20135;-61
2021/12/04 02:38:18;;;;;;;1.65;1.20;;;;;;;7.12;70.44;99802.53;5121237;28;20082;-62
2021/12/04 02:40:46;;;;;;;1.80;1.02;;;;;;;7.11;70.62;99797.41;5121563;28;20063;-61
2021/12/04 02:43:14;;;;;;;1.60;1.23;;;;;;;7.10;70.59;99793.94;5120026;28;20436;-62
2021/12/04 02:45:43;;;;;;;2.45;1.20;;;;;;;7.08;70.64;99798.69;5109927;28;20048;-61
2021/12/04 02:48:12;;;;;;;1.73;1.05;;;;;;;7.09;70.79;99802.16;5118945;28;20055;-61
2021/12/04 02:50:40;;;;;;;1.20;1.00;;;;;;;7.07;70.47;99797.03;5125603;28;20424;-61
2021/12/04 02:53:07;;;;;;;0.90;0.90;;;;;;;7.09;70.48;99794.16;5124277;28;20074;-61
2021/12/04 02:55:36;;;;;;;1.50;1.13;;;;;;;7.08;70.73;99800.53;5124979;28;20040;-62
2021/12/04 02:58:05;;;;;;;1.25;1.10;;;;;;;7.07;70.40;99802.41;5123031;28;20047;-62
2021/12/04 03:00:33;;;;;;;1.63;1.20;;;;;;;7.07;71.04;99807.72;5124147;28;20103;-62
2021/12/04 03:03:02;;;;;;;1.73;1.25;;;;;;;7.07;70.52;99802.41;5124810;28;20442;-62
2021/12/04 03:05:31;;;;;;;1.00;0.90;;;;;;;7.08;70.63;99789.84;5125176;28;20044;-62
2021/12/04 03:08:01;;;;;;;1.75;1.02;;;;;;;7.05;71.12;99784.97;5118222;28;20055;-62
2021/12/04 03:10:29;;;;;;;2.35;1.20;;;;;;;7.07;70.57;99785.53;5115290;28;20443;-62
2021/12/04 03:12:58;;;;;;;1.30;1.00;;;;;;;7.07;70.56;99785.53;5110967;28;20345;-62
2021/12/04 03:15:26;;;;;;;2.78;1.08;;;;;;;7.07;70.54;99786.38;5123310;28;20059;-62
2021/12/04 03:17:54;;;;;;;1.40;1.00;;;;;;;7.07;70.37;99783.69;5115699;28;20055;-62
2021/12/04 03:20:21;;;;;;;1.30;1.02;;;;;;;7.08;70.56;99785.31;5123918;28;20528;-62
2021/12/04 03:22:51;;;;;;;1.17;1.02;;;;;;;7.08;70.68;99784.50;5112997;28;20048;-62
2021/12/04 03:25:19;;;;;;;0.90;0.90;;;;;;;7.08;70.46;99776.50;5116478;28;20087;-62
2021/12/04 03:27:49;;;;;;;1.88;1.25;;;;;;;7.09;70.40;99776.28;5124176;28;20083;-61
2021/12/04 03:30:31;;;;;;;1.75;1.00;;;;;;;7.08;70.50;99777.31;5123953;28;20059;-62
2021/12/04 03:41:23;;;;;;;1.13;0.82;;;;;;;7.08;70.87;99752.44;5058031;28;20048;-62
2021/12/04 03:43:51;;;;;;;1.92;0.98;;;;;;;7.07;70.57;99754.31;5046560;28;20125;-62
2021/12/04 03:46:20;;;;;;;1.35;0.93;;;;;;;7.05;70.41;99751.03;5051920;28;20064;-62
2021/12/04 03:48:52;;;;;;;0.90;0.90;;;;;;;7.05;70.72;99752.91;5054310;28;20060;-63
2021/12/04 03:51:21;;;;;;;1.88;1.20;;;;;;;7.06;70.86;99755.34;5060779;28;20059;-62
2021/12/04 03:53:49;;;;;;;0.80;0.80;;;;;;;7.05;70.87;99748.38;5061005;28;20666;-62
2021/12/04 03:56:21;;;;;;;1.27;1.10;;;;;;;7.06;70.58;99752.66;5051293;28;20052;-62
2021/12/04 03:58:49;;;;;;;0.93;0.88;;;;;;;7.08;71.08;99747.09;5055778;28;20045;-62
2021/12/04 04:01:17;;;;;;;1.48;1.10;;;;;;;7.07;71.02;99746.28;5045775;28;20046;-62
2021/12/04 04:03:46;;;;;;;1.08;0.90;;;;;;;7.07;70.99;99746.28;5060865;28;20099;-62
2021/12/04 04:06:14;;;;;;;1.23;0.98;;;;;;;7.06;70.56;99741.16;5055628;28;20052;-61
2021/12/04 04:08:42;;;;;;;1.10;1.00;;;;;;;7.06;71.24;99741.16;5058712;28;20083;-62
2021/12/04 04:11:10;;;;;;;1.13;1.00;;;;;;;7.05;71.13;99732.34;5071697;28;20059;-62
2021/12/04 04:13:41;;;;;;;1.98;0.90;;;;;;;7.05;70.86;99727.00;5122165;28;20036;-62
2021/12/04 04:16:09;;;;;;;1.42;0.95;;;;;;;7.06;70.97;99725.97;5110153;28;20482;-62
2021/12/04 04:18:37;;;;;;;1.67;1.20;;;;;;;7.04;71.35;99728.03;5110008;28;20131;-61
2021/12/04 04:21:07;;;;;;;2.28;1.05;;;;;;;7.04;70.95;99720.03;5122130;28;20047;-63
2021/12/04 04:23:34;;;;;;;2.05;0.90;;;;;;;7.05;70.90;99731.53;5121923;28;20043;-61
2021/12/04 04:26:02;;;;;;;1.73;1.30;;;;;;;7.05;70.92;99732.34;5111166;28;20378;-61
2021/12/04 04:28:30;;;;;;;1.10;1.00;;;;;;;7.04;71.17;99721.88;5109815;28;20051;-62
2021/12/04 04:30:58;;;;;;;1.08;0.95;;;;;;;7.06;70.79;99727.81;5112780;28;20112;-61
2021/12/04 04:33:26;;;;;;;1.80;1.02;;;;;;;7.05;71.21;99715.50;5123761;28;20040;-61
2021/12/04 04:36:06;;;;;;;1.05;0.95;;;;;;;7.06;71.01;99717.13;5108996;28;20064;-61
2021/12/04 04:38:44;;;;;;;0.98;0.75;;;;;;;7.04;71.45;99714.69;5117012;28;20043;-61
2021/12/04 04:58:12;;;;;;;1.10;1.00;;;;;;;7.04;71.35;99721.88;5112257;28;20051;-62
2021/12/04 05:01:00;;;;;;;2.50;1.83;;;;;;;7.05;71.11;99712.81;5122768;28;20300;-62
2021/12/04 05:11:56;;;;;;;1.38;1.13;;;;;;;7.05;71.32;99702.16;5125911;28;20055;-61
2021/12/04 05:14:24;;;;;;;1.13;1.00;;;;;;;7.03;71.01;99702.38;5126809;28;20111;-62
2021/12/04 05:16:58;;;;;;;6.55;1.15;;;;;;;7.03;71.28;99686.34;5124732;28;20090;-62
2021/12/04 05:19:29;;;;;;;1.27;0.95;;;;;;;7.02;71.19;99682.03;5118586;28;20071;-61
2021/12/04 05:21:57;;;;;;;3.50;1.00;;;;;;;7.02;71.13;99673.22;5127540;28;20059;-62
2021/12/04 05:24:24;;;;;;;1.25;1.15;;;;;;;7.03;71.22;99677.50;5122591;28;20040;-62
2021/12/04 05:26:54;;;;;;;3.40;1.00;;;;;;;7.04;70.98;99679.16;5126086;28;20477;-62
2021/12/04 05:29:21;;;;;;;1.13;0.98;;;;;;;7.03;71.51;99683.66;5121191;28;20070;-62
2021/12/04 05:31:49;;;;;;;1.23;1.00;;;;;;;7.03;71.15;99680.19;5112718;28;20040;-62
2021/12/04 05:34:17;;;;;;;1.02;1.00;;;;;;;7.05;71.41;99678.09;5114328;28;20090;-62
2021/12/04 05:36:45;;;;;;;1.35;0.90;;;;;;;7.06;71.14;99672.53;5120363;28;20043;-62
2021/12/04 05:39:13;;;;;;;2.80;1.40;;;;;;;6.98;71.01;99662.16;5126413;28;20521;-61
2021/12/04 05:41:41;;;;;;;1.00;0.80;;;;;;;7.04;70.85;99673.78;5107460;27;20040;-61
2021/12/04 05:44:11;;;;;;;2.65;1.13;;;;;;;7.03;71.13;99672.16;5114511;28;20059;-61
2021/12/04 05:46:44;;;;;;;1.02;0.85;;;;;;;7.04;70.95;99679.16;5114976;28;20062;-62
2021/12/04 05:49:16;;;;;;;1.42;1.02;;;;;;;7.02;71.25;99676.69;5126479;28;20052;-62
2021/12/04 05:54:56;;;;;;;2.88;0.90;;;;;;;7.03;71.56;99681.00;5124526;28;20043;-63
2021/12/04 05:57:24;;;;;;;1.25;1.02;;;;;;;7.03;71.04;99678.31;5119655;28;20166;-62
2021/12/04 05:59:53;;;;;;;1.30;0.82;;;;;;;7.04;71.06;99679.16;5112970;28;20079;-62
2021/12/04 06:02:21;;;;;;;0.90;0.80;;;;;;;7.04;71.43;99673.78;5128609;27;20051;-62
2021/12/04 06:04:49;;;;;;;1.17;1.08;;;;;;;7.14;70.91;99674.88;5126195;27;20044;-63
2021/12/04 06:07:17;;;;;;;2.53;0.93;;;;;;;7.26;70.88;99674.09;4755377;28;10000066;-62
2021/12/04 06:09:44;;;;;;;1.50;1.20;;;;;;;7.41;70.08;99669.13;5105093;28;20059;-63
2021/12/04 06:12:12;;;;;;;1.02;0.82;;;;;;;7.55;69.77;99661.72;5116532;28;20040;-62
2021/12/04 06:14:42;;;;;;;0.70;0.70;;;;;;;7.69;69.08;99657.78;5121499;28;20047;-62
2021/12/04 06:17:12;;;;;;;0.80;0.80;;;;;;;7.81;68.63;99658.59;5120197;28;20105;-63
2021/12/04 06:22:41;;;;;;;1.33;0.75;;;;;;;7.82;68.16;99649.50;5115435;28;20047;-63
2021/12/04 06:25:11;;;;;;;0.95;0.68;;;;;;;7.77;68.20;99657.41;5114090;28;20059;-63
2021/12/04 06:27:39;;;;;;;1.38;1.02;;;;;;;7.70;68.90;99654.88;5120642;28;20075;-62
2021/12/04 06:30:10;;;;;;;1.70;1.05;;;;;;;7.70;69.47;99648.69;5119709;28;20039;-63
2021/12/04 06:32:39;;;;;;;2.83;1.33;;;;;;;7.81;68.58;99647.88;5107842;28;20127;-63
2021/12/04 06:35:10;;;;;;;2.58;1.30;;;;;;;7.90;68.51;99651.84;5115078;28;20056;-62
2021/12/04 06:37:39;;;;;;;2.25;1.20;;;;;;;8.05;67.50;99662.06;5114934;28;20052;-64
2021/12/04 06:40:11;;;;;;;2.08;1.20;;;;;;;8.15;66.96;99660.41;5117793;28;20079;-62
2021/12/04 06:42:40;;;;;;;1.80;1.23;;;;;;;8.31;66.38;99663.41;5120489;28;20058;-62
2021/12/04 06:45:09;;;;;;;1.23;1.13;;;;;;;8.41;66.31;99659.13;5121027;28;20050;-62
2021/12/04 06:47:38;;;;;;;1.67;1.10;;;;;;;8.40;66.39;99662.03;5118636;28;20229;-62
2021/12/04 06:50:14;;;;;;;0.95;0.90;;;;;;;8.30;67.09;99664.47;5117842;28;20051;-62
2021/12/04 06:52:45;;;;;;;1.42;1.17;;;;;;;8.18;66.76;99667.16;5114682;28;20066;-63
2021/12/04 06:55:16;;;;;;;2.65;1.45;;;;;;;8.05;67.68;99672.75;5106152;28;20040;-64
2021/12/04 06:57:44;;;;;;;1.67;1.33;;;;;;;7.82;69.22;99682.44;5120219;28;20090;-62
2021/12/04 07:00:13;;;;;;;4.07;1.50;;;;;;;7.72;69.68;99676.84;5120036;28;20083;-62
2021/12/04 07:02:40;;;;;;;2.03;1.23;;;;;;;7.71;69.30;99674.41;5112018;28;20052;-61
2021/12/04 07:05:10;;;;;;;1.50;1.13;;;;;;;7.68;70.04;99677.53;5116565;28;20051;-62
2021/12/04 07:07:38;;;;;;;1.85;1.33;;;;;;;7.68;69.26;99674.84;5113789;28;20044;-62
2021/12/04 07:10:06;;;;;;;2.17;1.27;;;;;;;7.62;70.03;99673.91;5121138;28;20044;-62
2021/12/04 07:12:34;;;;;;;2.20;1.40;;;;;;;7.58;70.41;99663.91;5119432;28;20058;-62
2021/12/04 07:15:02;;;;;;;2.60;1.30;;;;;;;7.55;70.09;99672.41;5120633;28;20073;-62
2021/12/04 07:17:29;;;;;;;1.27;1.10;;;;;;;7.53;70.21;99669.16;5120597;28;20048;-61
2021/12/04 07:19:57;;;;;;;2.45;1.20;;;;;;;7.51;70.77;99672.06;5111307;28;20497;-62
2021/12/04 07:22:26;;;;;;;1.63;1.35;;;;;;;7.46;70.04;99677.28;5105282;28;20051;-63
2021/12/04 07:24:54;;;;;;;2.17;0.98;;;;;;;7.45;70.69;99668.44;5118062;28;20048;-63
2021/12/04 07:27:22;;;;;;;1.85;1.50;;;;;;;7.43;70.70;99667.03;5120414;28;20079;-63
2021/12/04 07:29:49;;;;;;;1.52;1.15;;;;;;;7.42;70.70;99668.09;5120142;28;20094;-63
2021/12/04 07:32:17;;;;;;;1.48;1.17;;;;;;;7.36;70.46;99667.16;5120886;28;20453;-62
2021/12/04 07:34:45;;;;;;;2.38;1.50;;;;;;;7.34;71.04;99661.22;5119999;28;20078;-62
2021/12/04 07:37:13;;;;;;;1.10;1.10;;;;;;;7.32;71.13;99665.97;5120728;28;20117;-63
2021/12/04 07:39:42;;;;;;;1.92;1.40;;;;;;;7.30;71.07;99661.91;5120667;28;20369;-62
2021/12/04 07:42:09;;;;;;;3.47;1.80;;;;;;;7.29;71.24;99660.28;5118379;28;20082;-60
2021/12/04 07:44:38;;;;;;;2.72;1.60;;;;;;;7.29;70.95;99668.28;5105990;28;20075;-62
2021/12/04 07:47:05;;;;;;;2.70;1.80;;;;;;;7.26;70.96;99663.41;5108714;28;20075;-62
2021/12/04 07:49:33;;;;;;;3.30;2.17;;;;;;;7.25;71.32;99654.56;5119494;28;20370;-64
2021/12/04 07:52:01;;;;;;;6.80;2.47;;;;;;;7.26;71.39;99652.72;5120186;28;20056;-62
2021/12/04 07:54:28;;;;;;;3.78;2.33;;;;;;;7.28;71.17;99653.31;5120333;28;20058;-62
2021/12/04 07:56:58;;;;;;;3.75;2.22;;;;;;;7.27;71.59;99651.66;5119945;28;20062;-62
2021/12/04 07:59:26;;;;;;;4.47;2.00;;;;;;;7.27;71.33;99649.00;5119917;28;20450;-62
2021/12/04 08:01:53;;;;;;;5.45;2.40;;;;;;;7.26;71.08;99650.03;5119616;28;20051;-62
2021/12/04 08:04:22;;;;;;;3.90;2.08;;;;;;;7.25;71.20;99645.75;5122156;28;20099;-62
2021/12/04 08:06:50;;;;;;;3.78;2.08;;;;;;;7.25;71.10;99640.41;5109402;28;20047;-62
2021/12/04 08:09:18;;;;;;;3.80;1.90;;;;;;;7.26;71.56;99648.19;5102769;28;20071;-62
2021/12/04 08:11:46;;;;;;;5.05;2.15;;;;;;;7.25;71.43;99635.06;5102914;28;20076;-62
2021/12/04 08:14:15;;;;;;;3.78;2.50;;;;;;;7.21;71.82;99634.69;5117845;28;20036;-62
2021/12/04 08:16:43;;;;;;;3.35;2.00;;;;;;;7.23;71.43;99631.78;5118304;28;20067;-63
2021/12/04 08:19:10;;;;;;;4.32;2.08;;;;;;;7.23;71.57;99618.44;5114232;28;20044;-62
2021/12/04 08:21:38;;;;;;;5.07;2.75;;;;;;;7.22;71.75;99625.63;5103370;28;20072;-62
2021/12/04 08:24:07;;;;;;;5.43;2.08;;;;;;;7.24;71.04;99617.38;5103277;28;20076;-59
2021/12/04 08:26:36;;;;;;;4.75;2.05;;;;;;;7.41;71.25;99627.19;5115544;28;20051;-61
2021/12/04 08:29:04;;;;;;;4.78;2.30;;;;;;;7.56;70.35;99618.69;5119517;28;20054;-62
2021/12/04 08:31:33;;;;;;;4.68;2.30;;;;;;;7.75;70.11;99617.53;5119536;28;20051;-63
2021/12/04 08:34:01;;;;;;;3.50;2.00;;;;;;;7.90;69.25;99611.72;5123541;28;20086;-61
2021/12/04 08:36:32;;;;;;;4.72;2.15;;;;;;;8.07;68.77;99598.44;5123351;28;20047;-61
2021/12/04 08:39:00;;;;;;;5.90;2.20;;;;;;;8.23;68.08;99607.59;5123530;28;20047;-61
2021/12/04 08:41:28;;;;;;;6.85;2.50;;;;;;;8.35;68.21;99601.19;5121472;28;20047;-62
2021/12/04 08:43:55;;;;;;;3.75;2.22;;;;;;;8.52;66.85;99595.88;5123421;28;20078;-61
2021/12/04 08:46:24;;;;;;;4.20;2.20;;;;;;;8.66;67.21;99594.53;5120653;28;20155;-67
2021/12/04 08:48:55;;;;;;;3.30;1.90;;;;;;;8.78;65.77;99583.75;5117983;28;20048;-61
2021/12/04 08:51:24;;;;;;;3.65;1.80;;;;;;;8.91;65.15;99586.13;5118973;28;20556;-62
2021/12/04 08:53:53;;;;;;;2.47;1.67;;;;;;;9.03;65.19;99589.53;5117952;28;20075;-61
2021/12/04 08:56:21;;;;;;;3.63;1.60;;;;;;;9.15;64.38;99592.16;5119310;28;20047;-61
2021/12/04 08:58:50;;;;;;;2.55;1.70;;;;;;;9.24;64.60;99581.81;5121827;28;20405;-62
2021/12/04 09:01:25;;;;;;;2.47;1.63;;;;;;;9.24;64.04;99582.63;5114621;28;20105;-61
2021/12/04 09:03:57;;;;;;;3.13;2.00;;;;;;;9.14;64.33;99585.16;5115290;28;20389;-62
2021/12/04 09:06:25;;;;;;;4.70;2.17;;;;;;;8.97;65.39;99587.81;5119010;28;20063;-62
2021/12/04 09:08:53;;;;;;;2.88;1.88;;;;;;;8.79;66.31;99590.72;5122123;28;20062;-61
2021/12/04 09:11:24;;;;;;;3.13;2.00;;;;;;;8.64;66.17;99583.25;5121593;28;20086;-61
2021/12/04 09:13:53;;;;;;;3.47;2.05;;;;;;;8.52;67.17;99587.03;5123693;28;20063;-61
2021/12/04 09:16:23;;;;;;;3.17;1.80;;;;;;;8.43;68.00;99579.38;5109506;28;20051;-61
2021/12/04 09:18:51;;;;;;;5.97;2.03;;;;;;;8.35;68.58;99582.44;5123145;28;20077;-61
2021/12/04 09:21:20;;;;;;;2.90;1.83;;;;;;;8.28;67.91;99579.06;5123085;28;20457;-61
2021/12/04 09:23:50;;;;;;;2.47;1.65;;;;;;;8.23;68.82;99570.94;5121932;28;20075;-61
2021/12/04 09:26:32;;;;;;;2.42;1.55;;;;;;;8.18;68.32;99575.38;5101810;28;20059;-61
2021/12/04 09:29:08;;;;;;;2.40;1.67;;;;;;;8.13;69.16;99568.03;5102719;28;20048;-62
2021/12/04 09:31:56;;;;;;;2.35;1.77;;;;;;;8.08;69.42;99559.91;5102377;28;20052;-61
2021/12/04 10:02:31;;;;;;;3.53;1.60;;;;;;;7.79;70.36;99538.47;5040762;28;20169;-61
2021/12/04 10:19:21;;;;;;;2.28;1.70;;;;;;;7.70;71.00;99531.03;5042478;28;20120;-61
2021/12/04 10:22:16;;;;;;;3.63;1.40;;;;;;;7.71;71.36;99528.13;5042987;28;20399;-61
2021/12/04 10:33:14;;;;;;;3.22;2.20;;;;;;;7.70;71.51;99512.31;5042777;28;20368;-61
2021/12/04 10:35:43;;;;;;;3.83;1.80;;;;;;;7.72;71.36;99505.69;5041032;28;20045;-62
2021/12/04 10:38:18;;;;;;;4.78;2.10;;;;;;;7.72;71.06;99495.00;5029423;28;20049;-61
2021/12/04 10:40:48;;;;;;;2.03;1.50;;;;;;;7.71;71.43;99496.03;5029104;28;20165;-60
2021/12/04 10:43:23;;;;;;;2.55;1.92;;;;;;;7.70;71.05;99482.91;5037062;28;20072;-62
2021/12/04 10:45:53;;;;;;;2.85;2.22;;;;;;;7.69;72.02;99483.97;5039421;28;20045;-62
2021/12/04 10:48:29;;;;;;;3.75;2.10;;;;;;;7.67;71.86;99484.19;5041661;28;20073;-60
2021/12/04 10:51:04;;;;;;;1.75;1.52;;;;;;;7.67;71.57;99486.06;5032070;28;20049;-61
2021/12/04 10:53:37;;;;;;;2.53;1.70;;;;;;;7.64;71.13;99482.00;5036927;28;20049;-61
2021/12/04 10:56:23;;;;;;;2.38;1.52;;;;;;;7.66;71.76;99471.06;5109869;28;20048;-61
2021/12/04 10:59:16;;;;;;;3.95;1.60;;;;;;;7.69;71.69;99473.25;5120000;28;20058;-60
2021/12/04 11:01:54;;;;;;;11.18;1.85;;;;;;;7.70;71.44;99456.16;5110992;28;20563;-60
2021/12/04 11:04:45;;;;;;;2.90;1.81;;;;;;;7.70;71.38;99454.31;5050324;28;10001433;-60
2021/12/04 11:07:50;;;;;;;2.45;1.73;;;;;;;7.70;71.87;99453.50;5113447;28;20260;-59
2021/12/04 11:19:01;;;;;;;2.20;1.67;;;;;;;7.71;71.54;99439.06;5118976;28;20071;-60
2021/12/04 11:36:14;;;;;;;2.15;1.50;;;;;;;7.80;71.48;99430.44;5094498;28;20055;-59
2021/12/04 11:38:47;;;;;;;2.53;1.42;;;;;;;7.82;71.37;99417.63;5120611;28;20070;-61
2021/12/04 11:41:22;;;;;;;2.35;1.70;;;;;;;7.85;71.56;99416.34;5119175;28;20093;-60
2021/12/04 11:43:56;;;;;;;5.13;1.60;;;;;;;7.86;70.92;99411.81;5118606;28;20075;-61
2021/12/04 11:46:40;;;;;;;3.05;1.77;;;;;;;7.84;71.47;99404.84;5118459;28;20161;-61
2021/12/04 11:49:12;;;;;;;2.25;1.52;;;;;;;7.84;71.26;99399.50;5118139;28;20048;-62
2021/12/04 11:51:48;;;;;;;2.80;1.55;;;;;;;7.85;71.15;99400.31;5118656;28;20086;-60
2021/12/04 11:54:17;;;;;;;2.55;1.85;;;;;;;7.80;71.29;99384.97;5119945;28;20056;-61
2021/12/04 11:56:44;;;;;;;2.95;1.77;;;;;;;7.81;71.09;99381.25;5116498;28;20081;-60
2021/12/04 11:59:12;;;;;;;2.10;1.50;;;;;;;7.81;71.33;99391.94;5118698;28;20047;-60
2021/12/04 12:01:40;;;;;;;1.92;1.52;;;;;;;7.80;71.58;99389.50;5114155;27;20056;-61
2021/12/04 12:04:12;;;;;;;2.50;1.70;;;;;;;7.78;71.54;99391.59;5110237;28;20130;-60
2021/12/04 12:06:42;;;;;;;10.68;2.70;;;;;;;7.80;71.78;99393.00;5111926;28;20382;-59
2021/12/04 12:09:14;;;;;;;6.45;2.85;;;;;;;7.80;72.17;99392.19;5116259;28;20299;-59
2021/12/04 12:11:52;;;;;;;4.10;2.00;;;;;;;7.80;72.17;99389.50;5116640;28;20093;-59
2021/12/04 12:14:23;;;;;;;4.55;1.90;;;;;;;7.81;71.60;99383.91;5117925;28;20107;-60
2021/12/04 12:16:54;;;;;;;3.60;2.03;;;;;;;7.82;71.32;99390.88;5113251;28;20036;-59
2021/12/04 12:19:27;;;;;;;2.45;1.80;;;;;;;7.81;71.60;99389.28;5117320;28;20131;-59
2021/12/04 12:22:00;;;;;;;3.50;2.20;;;;;;;7.80;71.39;99376.94;5115305;28;20047;-59
2021/12/04 12:27:33;;;;;;;6.07;2.97;;;;;;;7.79;71.71;99391.38;5114061;28;20062;-58
2021/12/04 12:33:13;;;;;;;2.75;1.60;;;;;;;7.78;71.17;99381.72;5114993;28;20055;-59
2021/12/04 12:36:03;;;;;;;3.40;2.05;;;;;;;7.77;71.52;99388.13;5112465;28;20101;-59
2021/12/04 12:38:47;;;;;;;2.83;1.92;;;;;;;7.78;71.83;99402.31;5107849;28;20126;-59
2021/12/04 12:41:22;;;;;;;5.38;2.20;;;;;;;7.82;71.88;99398.09;5113225;28;20509;-59
2021/12/04 12:43:58;;;;;;;3.28;1.73;;;;;;;7.84;71.81;99399.50;5115369;28;20082;-59
2021/12/04 12:46:35;;;;;;;2.80;2.13;;;;;;;7.91;71.69;99396.66;5121572;27;20631;-58
2021/12/04 12:49:05;;;;;;;4.40;2.25;;;;;;;7.93;71.35;99393.75;5115086;28;20297;-59
2021/12/04 12:51:36;;;;;;;3.78;1.95;;;;;;;7.92;72.02;99384.09;5118719;28;20075;-59
2021/12/04 12:54:07;;;;;;;3.60;2.10;;;;;;;7.92;71.34;99390.25;5119258;28;20044;-58
2021/12/04 12:56:38;;;;;;;3.75;2.40;;;;;;;7.91;71.05;99391.31;5112219;28;20044;-59
2021/12/04 12:59:32;;;;;;;5.18;2.08;;;;;;;7.90;71.19;99387.03;5119632;28;20599;-59
2021/12/04 13:13:33;;;;;;;2.92;2.00;;;;;;;7.93;71.17;99370.50;5039965;28;20072;-60
2021/12/04 13:16:06;;;;;;;5.30;2.30;;;;;;;7.96;71.55;99374.53;5034303;28;20041;-59
2021/12/04 13:18:37;;;;;;;3.20;2.47;;;;;;;8.07;71.52;99365.66;5032216;28;20113;-59
2021/12/04 13:21:07;;;;;;;4.35;2.30;;;;;;;8.18;70.58;99369.31;5034128;28;20041;-60
2021/12/04 13:23:38;;;;;;;3.17;2.25;;;;;;;8.32;70.33;99365.25;5034837;28;20049;-59
2021/12/04 13:26:09;;;;;;;6.35;2.10;;;;;;;8.46;69.67;99362.03;5034576;28;20373;-58
2021/12/04 13:28:39;;;;;;;5.35;2.60;;;;;;;8.60;69.03;99367.88;5035024;28;20527;-59
2021/12/04 13:31:07;;;;;;;5.70;2.80;;;;;;;8.75;68.78;99359.22;5035442;28;20053;-58
2021/12/04 13:33:39;;;;;;;4.28;2.92;;;;;;;8.91;68.62;99362.91;5038893;28;20117;-59
2021/12/04 13:36:13;;;;;;;3.28;2.55;;;;;;;9.07;67.18;99362.06;5039778;28;20119;-58
2021/12/04 13:38:42;;;;;;;4.22;2.70;;;;;;;9.18;66.88;99350.41;5037409;28;20172;-59
2021/12/04 13:41:11;;;;;;;4.15;2.83;;;;;;;9.32;66.54;99357.03;5046564;28;20163;-58
2021/12/04 13:43:40;;;;;;;4.15;2.78;;;;;;;9.41;66.25;99365.44;5027727;28;20050;-59
2021/12/04 13:46:08;;;;;;;4.63;2.90;;;;;;;9.51;65.94;99365.56;5117135;28;20110;-59
2021/12/04 13:48:36;;;;;;;6.22;2.83;;;;;;;9.58;65.74;99360.00;5124357;27;20468;-59
2021/12/04 13:51:04;;;;;;;2.45;2.20;;;;;;;9.71;64.93;99359.59;5122467;28;20161;-59
2021/12/04 13:53:34;;;;;;;3.92;2.63;;;;;;;9.79;65.05;99362.66;5121714;28;20073;-59
2021/12/04 13:56:08;;;;;;;4.63;2.60;;;;;;;9.89;64.83;99364.63;5120886;28;20089;-60
2021/12/04 13:58:44;;;;;;;4.32;2.90;;;;;;;9.94;64.72;99361.19;5119780;28;20054;-60
2021/12/04 14:01:12;;;;;;;4.47;2.72;;;;;;;10.01;64.15;99364.47;5121456;28;20078;-59
2021/12/04 14:03:40;;;;;;;3.67;2.70;;;;;;;10.04;63.85;99358.59;5118195;28;20059;-61
2021/12/04 14:06:12;;;;;;;4.18;2.90;;;;;;;9.96;64.67;99349.13;5115711;28;20055;-61
2021/12/04 14:08:40;;;;;;;3.60;2.65;;;;;;;9.80;65.16;99352.72;5121822;28;20055;-61
2021/12/04 14:11:09;;;;;;;3.97;2.90;;;;;;;9.56;65.93;99357.56;5121038;28;20067;-58
2021/12/04 14:13:39;;;;;;;5.05;2.78;;;;;;;9.39;67.15;99356.84;5119179;28;20082;-59
2021/12/04 14:16:07;;;;;;;9.18;4.35;;;;;;;9.11;68.30;99361.31;5115877;28;20077;-60
2021/12/04 14:18:36;;;;;;;6.57;4.50;;;;;;;8.84;69.32;99367.66;5112351;28;20031;-59